createdAt,value
2023-05-13T00:00:35.025Z,5.90
2023-05-13T00:03:03.265Z,5.80
2023-05-13T00:05:31.395Z,5.33
2023-05-13T00:08:02.135Z,5.97
2023-05-13T00:10:31.646Z,5.97
2023-05-13T00:12:59.699Z,5.60
2023-05-13T00:15:28.389Z,6.50
2023-05-13T00:17:56.535Z,6.17
2023-05-13T00:20:24.907Z,6.20
2023-05-13T00:22:52.920Z,6.00
2023-05-13T00:25:21.137Z,5.53
2023-05-13T00:27:51.224Z,5.80
2023-05-13T00:30:19.410Z,6.00
2023-05-13T00:32:47.867Z,6.40
2023-05-13T00:35:16.015Z,5.73
2023-05-13T00:37:44.160Z,5.50
2023-05-13T00:40:21.550Z,6.33
2023-05-13T00:42:51.625Z,5.63
2023-05-13T00:45:19.797Z,5.83
2023-05-13T00:47:50.195Z,5.70
2023-05-13T00:50:18.490Z,5.67
2023-05-13T00:52:50.859Z,6.50
2023-05-13T00:55:19.359Z,6.40
2023-05-13T00:57:47.480Z,5.90
2023-05-13T01:00:17.683Z,6.10
2023-05-13T01:02:54.679Z,5.90
2023-05-13T01:05:32.613Z,6.17
2023-05-13T01:08:08.267Z,6.10
2023-05-13T01:10:41.578Z,6.10
2023-05-13T01:13:12.442Z,5.90
2023-05-13T01:15:48.856Z,5.73
2023-05-13T01:18:20.793Z,6.13
2023-05-13T01:20:49.141Z,5.97
2023-05-13T01:23:18.644Z,6.43
2023-05-13T01:25:46.816Z,5.70
2023-05-13T01:28:15.703Z,6.60
2023-05-13T01:30:51.249Z,6.43
2023-05-13T01:33:20.027Z,6.63
2023-05-13T01:35:49.044Z,6.40
2023-05-13T01:38:21.323Z,6.20
2023-05-13T01:40:53.114Z,6.10
2023-05-13T01:43:21.170Z,6.10
2023-05-13T01:45:49.269Z,6.27
2023-05-13T01:48:18.670Z,6.20
2023-05-13T01:50:49.199Z,6.17
2023-05-13T01:53:17.330Z,6.63
2023-05-13T01:55:47.292Z,5.63
2023-05-13T01:58:15.458Z,6.27
2023-05-13T02:01:12.144Z,6.37
2023-05-13T02:03:40.268Z,6.57
2023-05-13T02:06:08.540Z,6.17
2023-05-13T02:08:36.608Z,6.67
2023-05-13T02:11:06.932Z,6.87
2023-05-13T02:13:34.991Z,6.50
2023-05-13T02:16:03.834Z,6.50
2023-05-13T02:18:32.182Z,6.53
2023-05-13T02:21:00.711Z,6.17
2023-05-13T02:23:29.272Z,5.83
2023-05-13T02:25:57.355Z,6.47
2023-05-13T02:28:26.754Z,6.17
2023-05-13T02:30:54.906Z,6.87
2023-05-13T02:33:23.429Z,6.33
2023-05-13T02:35:52.979Z,6.87
2023-05-13T02:38:21.087Z,6.30
2023-05-13T02:40:49.248Z,5.90
2023-05-13T02:43:17.418Z,6.63
2023-05-13T02:45:57.304Z,6.10
2023-05-13T02:48:26.123Z,6.33
2023-05-13T02:50:54.252Z,6.17
2023-05-13T02:53:23.235Z,6.37
2023-05-13T02:55:56.841Z,6.57
2023-05-13T02:58:27.445Z,6.33
2023-05-13T03:00:57.976Z,6.63
2023-05-13T03:03:27.221Z,6.50
2023-05-13T03:05:55.336Z,7.13
2023-05-13T03:08:23.448Z,7.00
2023-05-13T03:10:52.698Z,6.20
2023-05-13T03:13:21.144Z,6.37
2023-05-13T03:15:49.189Z,6.30
2023-05-13T03:18:18.803Z,6.93
2023-05-13T03:20:47.025Z,6.73
2023-05-13T03:23:15.265Z,6.70
2023-05-13T03:25:45.016Z,7.17
2023-05-13T03:28:13.344Z,6.57
2023-05-13T03:30:44.675Z,6.43
2023-05-13T03:33:30.226Z,6.97
2023-05-13T03:35:58.736Z,6.37
2023-05-13T03:38:31.615Z,6.13
2023-05-13T03:40:59.756Z,6.30
2023-05-13T03:43:28.139Z,7.00
2023-05-13T03:46:00.872Z,6.80
2023-05-13T03:48:31.150Z,6.57
2023-05-13T03:51:02.579Z,6.20
2023-05-13T03:53:31.413Z,6.50
2023-05-13T03:55:59.552Z,6.27
2023-05-13T03:58:29.556Z,6.47
2023-05-13T04:00:58.956Z,7.27
2023-05-13T04:03:28.238Z,6.77
2023-05-13T04:05:57.862Z,6.30
2023-05-13T04:08:26.017Z,6.93
2023-05-13T04:10:55.804Z,7.07
2023-05-13T04:13:24.092Z,6.53
2023-05-13T04:15:54.407Z,6.73
2023-05-13T04:18:22.880Z,6.37
2023-05-13T04:20:50.977Z,6.50
2023-05-13T04:23:20.574Z,6.87
2023-05-13T04:25:52.274Z,6.27
2023-05-13T04:28:20.809Z,6.63
2023-05-13T04:30:50.301Z,6.97
2023-05-13T04:33:18.491Z,6.37
2023-05-13T04:35:48.943Z,6.60
2023-05-13T04:38:18.305Z,7.00
2023-05-13T04:40:49.006Z,6.50
2023-05-13T04:43:23.119Z,6.97
2023-05-13T04:45:57.748Z,7.07
2023-05-13T04:48:28.025Z,6.80
2023-05-13T04:50:58.302Z,5.93
2023-05-13T04:53:26.919Z,7.00
2023-05-13T04:56:00.955Z,6.47
2023-05-13T04:58:30.930Z,6.77
2023-05-13T05:00:59.053Z,6.77
2023-05-13T05:03:27.170Z,6.30
2023-05-13T05:05:55.785Z,6.80
2023-05-13T05:08:25.343Z,6.83
2023-05-13T05:10:53.642Z,7.37
2023-05-13T05:13:23.209Z,7.80
2023-05-13T05:15:51.298Z,7.87
2023-05-13T05:18:19.663Z,7.83
2023-05-13T05:20:51.180Z,7.93
2023-05-13T05:23:22.391Z,7.83
2023-05-13T05:26:03.978Z,7.23
2023-05-13T05:28:40.761Z,7.73
2023-05-13T05:31:09.726Z,7.33
2023-05-13T05:33:38.382Z,8.77
2023-05-13T05:36:08.134Z,7.57
2023-05-13T05:38:36.838Z,8.20
2023-05-13T05:41:05.339Z,8.33
2023-05-13T05:43:34.132Z,8.20
2023-05-13T05:46:04.984Z,7.57
2023-05-13T05:48:34.900Z,7.60
2023-05-13T05:51:04.220Z,7.70
2023-05-13T05:53:37.529Z,7.77
2023-05-13T05:56:06.870Z,7.90
2023-05-13T05:58:36.119Z,7.40
2023-05-13T06:01:05.949Z,8.07
2023-05-13T06:03:34.536Z,7.77
2023-05-13T06:06:02.705Z,8.13
2023-05-13T06:08:34.178Z,7.60
2023-05-13T06:11:02.498Z,7.27
2023-05-13T06:13:30.788Z,7.53
2023-05-13T06:15:59.035Z,7.97
2023-05-13T06:18:28.713Z,7.80
2023-05-13T06:20:56.775Z,7.23
2023-05-13T06:23:24.822Z,7.40
2023-05-13T06:25:53.157Z,7.13
2023-05-13T06:28:21.563Z,7.67
2023-05-13T06:30:51.925Z,6.53
2023-05-13T06:33:20.081Z,7.43
2023-05-13T06:35:50.044Z,7.00
2023-05-13T06:38:20.463Z,6.80
2023-05-13T06:40:49.824Z,6.40
2023-05-13T06:43:18.834Z,7.53
2023-05-13T06:45:49.898Z,6.20
2023-05-13T06:48:18.264Z,7.47
2023-05-13T06:50:46.510Z,7.23
2023-05-13T06:53:16.043Z,7.00
2023-05-13T06:55:44.255Z,6.83
2023-05-13T06:58:12.629Z,6.80
2023-05-13T07:00:41.950Z,6.67
2023-05-13T07:03:10.058Z,6.60
2023-05-13T07:05:38.115Z,6.50
2023-05-13T07:08:08.532Z,7.20
2023-05-13T07:10:39.854Z,6.53
2023-05-13T07:13:08.039Z,6.77
2023-05-13T07:15:36.200Z,6.47
2023-05-13T07:18:04.427Z,6.23
2023-05-13T07:20:33.237Z,6.53
2023-05-13T07:23:02.225Z,6.10
2023-05-13T07:25:31.229Z,7.07
2023-05-13T07:28:00.842Z,6.87
2023-05-13T07:30:32.044Z,6.13
2023-05-13T07:33:03.407Z,6.20
2023-05-13T07:35:31.980Z,6.03
2023-05-13T07:38:00.242Z,6.57
2023-05-13T07:40:28.531Z,6.43
2023-05-13T07:42:56.768Z,6.53
2023-05-13T07:45:26.276Z,5.60
2023-05-13T07:47:55.041Z,5.80
2023-05-13T07:50:23.515Z,6.03
2023-05-13T07:52:51.848Z,5.77
2023-05-13T07:55:20.540Z,5.70
2023-05-13T07:57:50.473Z,6.43
2023-05-13T08:00:19.177Z,6.10
2023-05-13T08:02:49.485Z,5.53
2023-05-13T08:05:17.842Z,5.50
2023-05-13T08:07:46.158Z,6.70
2023-05-13T08:10:14.544Z,5.80
2023-05-13T08:12:43.514Z,5.10
2023-05-13T08:15:14.331Z,5.53
2023-05-13T08:17:44.655Z,5.63
2023-05-13T08:20:15.290Z,5.37
2023-05-13T08:22:43.863Z,5.33
2023-05-13T08:25:12.276Z,4.87
2023-05-13T08:27:40.444Z,4.97
2023-05-13T08:30:09.807Z,5.27
2023-05-13T08:32:37.986Z,4.80
2023-05-13T08:35:09.368Z,5.20
2023-05-13T08:37:38.882Z,5.17
2023-05-13T08:40:08.280Z,4.40
2023-05-13T08:42:40.829Z,4.50
2023-05-13T08:45:10.789Z,4.47
2023-05-13T08:47:44.952Z,4.30
2023-05-13T08:50:14.008Z,4.67
2023-05-13T08:52:44.729Z,4.43
2023-05-13T08:55:14.363Z,4.73
2023-05-13T08:57:45.346Z,4.23
2023-05-13T09:00:18.487Z,4.30
2023-05-13T09:02:48.372Z,4.10
2023-05-13T09:05:17.159Z,4.13
2023-05-13T09:07:49.578Z,4.50
2023-05-13T09:10:19.127Z,4.63
2023-05-13T09:12:49.232Z,3.80
2023-05-13T09:15:21.301Z,3.97
2023-05-13T09:17:52.566Z,4.47
2023-05-13T09:20:21.715Z,4.30
2023-05-13T09:22:53.391Z,4.13
2023-05-13T09:25:25.642Z,4.13
2023-05-13T09:27:57.651Z,4.17
2023-05-13T09:30:26.448Z,3.97
2023-05-13T09:33:10.091Z,4.13
2023-05-13T09:35:39.534Z,3.90
2023-05-13T09:38:17.057Z,3.87
2023-05-13T09:40:52.082Z,4.20
2023-05-13T09:43:21.533Z,4.17
2023-05-13T09:45:53.453Z,3.53
2023-05-13T09:48:22.737Z,3.97
2023-05-13T09:50:52.025Z,3.87
2023-05-13T09:53:21.749Z,3.50
2023-05-13T09:55:51.656Z,3.37
2023-05-13T09:58:20.857Z,3.33
2023-05-13T10:00:49.554Z,3.30
2023-05-13T10:03:20.780Z,3.27
2023-05-13T10:05:51.080Z,3.30
2023-05-13T10:08:21.135Z,3.60
2023-05-13T10:10:51.415Z,3.80
2023-05-13T10:13:25.168Z,3.23
2023-05-13T10:15:55.419Z,2.73
2023-05-13T10:18:25.066Z,3.50
2023-05-13T10:20:54.161Z,3.53
2023-05-13T10:23:24.860Z,3.17
2023-05-13T10:25:55.292Z,2.90
2023-05-13T10:28:24.336Z,3.07
2023-05-13T10:30:52.705Z,3.50
2023-05-13T10:33:21.561Z,3.30
2023-05-13T10:36:03.557Z,3.20
2023-05-13T10:38:48.276Z,3.73
2023-05-13T10:41:33.496Z,3.20
2023-05-13T10:44:03.052Z,3.00
2023-05-13T10:46:32.366Z,3.20
2023-05-13T10:49:01.703Z,3.60
2023-05-13T10:51:29.916Z,3.20
2023-05-13T10:54:00.988Z,2.70
2023-05-13T10:56:30.055Z,3.30
2023-05-13T10:59:03.441Z,3.10
2023-05-13T11:01:35.038Z,3.17
2023-05-13T11:04:04.961Z,3.20
2023-05-13T11:06:36.812Z,3.53
2023-05-13T11:09:08.861Z,3.37
2023-05-13T11:11:40.854Z,3.17
2023-05-13T11:14:15.693Z,3.90
2023-05-13T11:16:48.818Z,2.87
2023-05-13T11:19:22.518Z,3.17
2023-05-13T11:21:53.639Z,3.57
2023-05-13T11:24:24.138Z,3.00
2023-05-13T11:26:53.772Z,3.23
2023-05-13T11:29:32.384Z,3.40
2023-05-13T11:32:02.159Z,3.17
2023-05-13T11:34:31.437Z,3.47
2023-05-13T11:37:09.493Z,3.10
2023-05-13T11:39:41.257Z,3.50
2023-05-13T11:42:10.411Z,2.90
2023-05-13T11:44:46.877Z,3.50
2023-05-13T11:47:15.664Z,3.03
2023-05-13T11:49:45.408Z,3.37
2023-05-13T11:52:15.255Z,3.10
2023-05-13T11:54:48.399Z,3.40
2023-05-13T11:57:21.237Z,3.30
2023-05-13T11:59:54.125Z,3.17
2023-05-13T12:02:23.538Z,3.03
2023-05-13T12:04:52.611Z,3.23
2023-05-13T12:07:22.608Z,3.33
2023-05-13T12:09:53.146Z,3.70
2023-05-13T12:12:21.987Z,3.23
2023-05-13T12:14:51.220Z,2.70
2023-05-13T12:17:20.413Z,2.83
2023-05-13T12:20:08.244Z,2.80
2023-05-13T12:22:37.676Z,2.90
2023-05-13T12:25:37.564Z,3.23
2023-05-13T12:28:09.252Z,3.20
2023-05-13T12:30:38.347Z,3.00
2023-05-13T12:33:06.711Z,3.00
2023-05-13T12:35:35.046Z,2.70
2023-05-13T12:38:04.515Z,2.73
2023-05-13T12:40:34.426Z,2.73
2023-05-13T12:43:03.795Z,3.00
2023-05-13T12:45:33.007Z,2.80
2023-05-13T12:48:01.899Z,2.83
2023-05-13T12:50:30.012Z,3.00
2023-05-13T12:52:59.880Z,2.93
2023-05-13T12:55:28.407Z,2.80
2023-05-13T12:58:00.333Z,2.50
2023-05-13T13:00:29.526Z,2.70
2023-05-13T13:02:58.012Z,2.77
2023-05-13T13:05:27.766Z,2.63
2023-05-13T13:07:56.229Z,2.60
2023-05-13T13:10:24.337Z,2.73
2023-05-13T13:12:52.481Z,2.70
2023-05-13T13:15:22.207Z,3.00
2023-05-13T13:17:50.582Z,2.90
2023-05-13T13:20:18.830Z,2.70
2023-05-13T13:22:46.972Z,3.00
2023-05-13T13:25:15.222Z,2.90
2023-05-13T13:27:43.437Z,2.70
2023-05-13T13:30:13.195Z,2.50
2023-05-13T13:32:42.947Z,2.87
2023-05-13T13:35:11.534Z,2.77
2023-05-13T13:37:39.967Z,3.00
2023-05-13T13:40:09.039Z,3.43
2023-05-13T13:42:43.994Z,3.10
2023-05-13T13:45:13.736Z,2.67
2023-05-13T13:47:43.530Z,2.80
2023-05-13T13:50:13.925Z,3.00
2023-05-13T13:52:42.052Z,3.23
2023-05-13T13:55:11.726Z,3.30
2023-05-13T13:57:39.985Z,3.67
2023-05-13T14:00:09.420Z,3.20
2023-05-13T14:02:37.963Z,3.33
2023-05-13T14:05:08.710Z,3.30
2023-05-13T14:07:37.701Z,3.20
2023-05-13T14:10:06.909Z,3.17
2023-05-13T14:12:35.766Z,3.40
2023-05-13T14:15:04.206Z,3.13
2023-05-13T14:17:32.992Z,3.20
2023-05-13T14:20:01.252Z,3.30
2023-05-13T14:22:30.869Z,3.33
2023-05-13T14:24:59.917Z,3.20
2023-05-13T14:27:28.091Z,3.10
2023-05-13T14:29:56.524Z,3.10
2023-05-13T14:32:26.566Z,3.20
2023-05-13T14:34:54.693Z,3.30
2023-05-13T14:37:22.882Z,2.93
2023-05-13T14:39:54.722Z,2.87
2023-05-13T14:42:23.033Z,2.77
2023-05-13T14:44:51.107Z,3.17
2023-05-13T14:47:19.287Z,3.00
2023-05-13T14:49:47.475Z,3.10
2023-05-13T14:52:15.620Z,2.73
2023-05-13T14:54:43.824Z,2.80
2023-05-13T14:57:13.363Z,2.80
2023-05-13T14:59:41.604Z,2.90
2023-05-13T15:02:09.809Z,2.60
2023-05-13T15:04:38.018Z,2.90
2023-05-13T15:07:08.207Z,2.80
2023-05-13T15:09:36.292Z,2.93
2023-05-13T15:12:05.593Z,2.70
2023-05-13T15:14:35.131Z,2.47
2023-05-13T15:17:03.492Z,2.90
2023-05-13T15:19:31.850Z,2.73
2023-05-13T15:22:04.616Z,2.53
2023-05-13T15:24:32.936Z,2.80
2023-05-13T15:27:03.666Z,2.70
2023-05-13T15:29:32.027Z,2.80
2023-05-13T15:32:01.610Z,2.77
2023-05-13T15:34:29.915Z,2.50
2023-05-13T15:37:00.674Z,2.93
2023-05-13T15:39:29.288Z,2.92
2023-05-13T15:41:57.550Z,3.13
2023-05-13T15:44:25.812Z,2.30
2023-05-13T15:46:54.154Z,2.60
2023-05-13T15:49:23.728Z,2.70
2023-05-13T15:51:52.952Z,2.87
2023-05-13T15:54:21.032Z,2.70
2023-05-13T15:56:49.120Z,3.20
2023-05-13T15:59:17.264Z,3.10
2023-05-13T16:01:46.737Z,3.03
2023-05-13T16:04:15.274Z,2.90
2023-05-13T16:06:46.199Z,2.70
2023-05-13T16:09:14.404Z,2.70
2023-05-13T16:11:43.498Z,2.47
2023-05-13T16:14:11.555Z,2.70
2023-05-13T16:16:39.757Z,2.70
2023-05-13T16:19:08.599Z,2.90
2023-05-13T16:21:36.838Z,2.80
2023-05-13T16:24:07.178Z,2.63
2023-05-13T16:26:35.357Z,2.80
2023-05-13T16:29:06.251Z,2.67
2023-05-13T16:31:34.586Z,2.43
2023-05-13T16:34:05.135Z,2.50
2023-05-13T16:36:33.433Z,2.80
2023-05-13T16:39:01.736Z,2.60
2023-05-13T16:41:31.869Z,2.87
2023-05-13T16:44:00.058Z,2.53
2023-05-13T16:46:28.886Z,2.70
2023-05-13T16:48:58.646Z,3.03
2023-05-13T16:51:28.324Z,2.70
2023-05-13T16:53:56.564Z,2.60
2023-05-13T16:56:26.220Z,2.50
2023-05-13T16:58:55.681Z,2.60
2023-05-13T17:01:23.962Z,2.30
2023-05-13T17:03:52.487Z,2.60
2023-05-13T17:06:20.695Z,2.53
2023-05-13T17:08:48.824Z,2.70
2023-05-13T17:11:17.580Z,2.43
2023-05-13T17:13:46.464Z,2.73
2023-05-13T17:16:16.108Z,2.60
2023-05-13T17:18:44.293Z,2.40
2023-05-13T17:21:12.606Z,2.80
2023-05-13T17:23:40.792Z,2.77
2023-05-13T17:26:09.064Z,2.90
2023-05-13T17:28:38.224Z,2.57
2023-05-13T17:31:07.513Z,3.00
2023-05-13T17:33:37.018Z,3.07
2023-05-13T17:36:06.015Z,2.87
2023-05-13T17:38:34.199Z,2.87
2023-05-13T17:41:02.289Z,2.87
2023-05-13T17:43:30.675Z,2.87
2023-05-13T17:45:59.018Z,3.23
2023-05-13T17:48:27.589Z,2.80
2023-05-13T17:50:57.126Z,2.87
2023-05-13T17:53:27.548Z,3.27
2023-05-13T17:55:55.739Z,2.80
2023-05-13T17:58:24.118Z,3.50
2023-05-13T18:00:52.349Z,3.50
2023-05-13T18:03:21.645Z,2.90
2023-05-13T18:05:49.950Z,3.00
2023-05-13T18:08:19.710Z,3.40
2023-05-13T18:10:48.783Z,2.80
2023-05-13T18:13:17.233Z,2.97
2023-05-13T18:15:45.528Z,2.83
2023-05-13T18:18:13.756Z,2.90
2023-05-13T18:20:42.164Z,2.50
2023-05-13T18:23:10.415Z,2.53
2023-05-13T18:25:52.099Z,2.80
2023-05-13T18:28:23.519Z,2.60
2023-05-13T18:30:51.595Z,2.67
2023-05-13T18:33:21.508Z,2.60
2023-05-13T18:35:50.037Z,2.50
2023-05-13T18:38:18.384Z,2.90
2023-05-13T18:40:48.002Z,2.50
2023-05-13T18:43:16.253Z,2.70
2023-05-13T18:45:44.764Z,2.90
2023-05-13T18:48:13.225Z,2.70
2023-05-13T18:50:42.074Z,2.80
2023-05-13T18:53:10.311Z,2.80
2023-05-13T18:55:38.665Z,2.80
2023-05-13T18:58:08.167Z,3.00
2023-05-13T19:00:37.412Z,2.80
2023-05-13T19:03:05.812Z,2.70
2023-05-13T19:05:34.079Z,2.83
2023-05-13T19:08:02.223Z,3.10
2023-05-13T19:10:38.980Z,2.40
2023-05-13T19:13:09.438Z,3.20
2023-05-13T19:15:37.677Z,2.60
2023-05-13T19:18:05.984Z,2.70
2023-05-13T19:20:34.174Z,2.70
2023-05-13T19:23:02.305Z,2.80
2023-05-13T19:25:30.694Z,2.70
2023-05-13T19:27:58.788Z,2.73
2023-05-13T19:30:28.188Z,2.90
2023-05-13T19:32:56.445Z,2.90
2023-05-13T19:35:25.278Z,3.17
2023-05-13T19:37:53.402Z,2.60
2023-05-13T19:40:21.939Z,3.00
2023-05-13T19:42:50.287Z,2.80
2023-05-13T19:45:20.308Z,2.90
2023-05-13T19:47:49.848Z,2.53
2023-05-13T19:50:18.305Z,2.77
2023-05-13T19:52:51.177Z,2.73
2023-05-13T19:55:20.288Z,3.07
2023-05-13T19:57:48.521Z,2.90
2023-05-13T20:00:17.193Z,2.87
2023-05-13T20:02:45.639Z,3.17
2023-05-13T20:05:15.331Z,3.07
2023-05-13T20:07:43.456Z,3.33
2023-05-13T20:10:12.296Z,2.60
2023-05-13T20:12:41.008Z,2.80
2023-05-13T20:15:10.254Z,3.07
2023-05-13T20:17:38.466Z,2.97
2023-05-13T20:20:08.198Z,2.77
2023-05-13T20:22:38.074Z,3.00
2023-05-13T20:25:09.751Z,2.63
2023-05-13T20:27:38.051Z,3.10
2023-05-13T20:30:07.559Z,2.87
2023-05-13T20:32:36.397Z,3.17
2023-05-13T20:35:05.302Z,2.93
2023-05-13T20:37:40.053Z,3.00
2023-05-13T20:40:10.917Z,3.27
2023-05-13T20:42:39.453Z,3.40
2023-05-13T20:45:09.825Z,2.90
2023-05-13T20:47:38.576Z,3.00
2023-05-13T20:50:08.280Z,3.00
2023-05-13T20:52:37.086Z,3.43
2023-05-13T20:55:06.520Z,3.37
2023-05-13T20:57:36.503Z,3.10
2023-05-13T21:00:05.381Z,2.93
2023-05-13T21:02:33.858Z,2.93
2023-05-13T21:05:02.166Z,3.30
2023-05-13T21:07:30.363Z,3.10
2023-05-13T21:09:58.457Z,2.83
2023-05-13T21:12:26.482Z,2.93
2023-05-13T21:14:55.933Z,3.07
2023-05-13T21:17:26.988Z,3.30
2023-05-13T21:19:55.123Z,3.40
2023-05-13T21:22:23.250Z,3.03
2023-05-13T21:24:51.380Z,3.13
2023-05-13T21:27:19.447Z,3.20
2023-05-13T21:29:47.487Z,3.57
2023-05-13T21:32:17.611Z,3.30
2023-05-13T21:34:48.571Z,3.40
2023-05-13T21:37:16.895Z,3.50
2023-05-13T21:39:45.071Z,3.20
2023-05-13T21:42:13.186Z,3.23
2023-05-13T21:44:41.935Z,3.50
2023-05-13T21:47:10.260Z,3.70
2023-05-13T21:49:39.692Z,3.40
2023-05-13T21:52:08.255Z,3.10
2023-05-13T21:54:36.282Z,3.27
2023-05-13T21:57:04.785Z,3.40
2023-05-13T21:59:33.001Z,3.43
2023-05-13T22:02:01.154Z,3.50
2023-05-13T22:04:29.519Z,3.67
2023-05-13T22:06:59.038Z,3.60
2023-05-13T22:09:27.102Z,3.63
2023-05-13T22:11:55.131Z,3.80
2023-05-13T22:14:23.337Z,3.70
2023-05-13T22:17:07.756Z,4.13
2023-05-13T22:19:37.044Z,3.23
2023-05-13T22:22:06.756Z,3.97
2023-05-13T22:24:34.833Z,4.20
2023-05-13T22:27:03.114Z,3.53
2023-05-13T22:29:31.410Z,3.40
2023-05-13T22:31:59.515Z,3.90
2023-05-13T22:34:28.001Z,3.97
2023-05-13T22:36:56.266Z,4.60
2023-05-13T22:39:27.348Z,4.20
2023-05-13T22:41:55.725Z,3.93
2023-05-13T22:44:24.097Z,4.40
2023-05-13T22:46:53.986Z,4.00
2023-05-13T22:49:22.309Z,4.07
2023-05-13T22:51:50.417Z,4.10
2023-05-13T22:54:26.100Z,3.73
2023-05-13T22:56:54.348Z,4.17
2023-05-13T22:59:22.788Z,3.67
2023-05-13T23:01:50.935Z,4.67
2023-05-13T23:04:22.082Z,4.00
2023-05-13T23:06:50.272Z,4.20
2023-05-13T23:09:18.482Z,4.20
2023-05-13T23:11:48.108Z,4.30
2023-05-13T23:14:16.396Z,4.50
2023-05-13T23:16:47.601Z,4.37
2023-05-13T23:19:15.868Z,4.60
2023-05-13T23:21:44.049Z,4.40
2023-05-13T23:24:12.126Z,4.10
2023-05-13T23:26:40.200Z,4.37
2023-05-13T23:29:09.751Z,4.40
2023-05-13T23:31:40.204Z,4.50
2023-05-13T23:34:08.467Z,4.57
2023-05-13T23:36:36.560Z,4.40
2023-05-13T23:39:04.774Z,5.00
2023-05-13T23:41:34.887Z,4.57
2023-05-13T23:44:04.889Z,4.20
2023-05-13T23:46:37.013Z,4.77
2023-05-13T23:49:05.148Z,4.53
2023-05-13T23:51:36.412Z,4.63
2023-05-13T23:54:04.591Z,4.27
2023-05-13T23:56:32.777Z,5.07
2023-05-13T23:59:00.815Z,4.30
